createdAt,value
2024-05-09T00:00:35.781Z,11.82
2024-05-09T00:03:48.237Z,9.70
2024-05-09T00:06:53.781Z,9.45
2024-05-09T00:09:59.793Z,6.75
2024-05-09T00:13:08.720Z,9.68
2024-05-09T00:16:14.473Z,11.55
2024-05-09T00:19:21.384Z,8.75
2024-05-09T00:22:29.109Z,7.97
2024-05-09T00:25:34.612Z,6.03
2024-05-09T00:28:43.072Z,5.65
2024-05-09T00:31:51.106Z,7.78
2024-05-09T00:34:56.671Z,5.70
2024-05-09T00:38:04.749Z,7.93
2024-05-09T00:41:10.690Z,9.77
2024-05-09T00:44:21.586Z,5.50
2024-05-09T00:47:27.612Z,7.68
2024-05-09T00:50:36.540Z,5.57
2024-05-09T00:53:43.305Z,7.25
2024-05-09T00:56:52.533Z,6.63
2024-05-09T01:00:00.720Z,6.53
2024-05-09T01:03:09.715Z,8.65
2024-05-09T01:06:17.310Z,7.85
2024-05-09T01:09:24.687Z,7.32
2024-05-09T01:12:33.343Z,7.25
2024-05-09T01:15:44.970Z,4.20
2024-05-09T01:18:56.735Z,7.57
2024-05-09T01:22:08.322Z,7.13
2024-05-09T01:25:16.673Z,6.05
2024-05-09T01:28:23.505Z,9.73
2024-05-09T01:31:30.670Z,6.07
2024-05-09T01:34:36.120Z,4.45
2024-05-09T01:37:41.531Z,5.97
2024-05-09T01:40:50.061Z,5.75
2024-05-09T01:43:55.774Z,7.68
2024-05-09T01:47:01.360Z,4.85
2024-05-09T01:50:11.072Z,7.15
2024-05-09T01:53:17.696Z,7.85
2024-05-09T01:56:26.884Z,6.78
2024-05-09T01:59:35.262Z,7.28
2024-05-09T02:02:41.897Z,6.43
2024-05-09T02:05:50.697Z,3.88
2024-05-09T02:08:56.247Z,6.70
2024-05-09T02:12:04.762Z,6.22
2024-05-09T02:15:10.826Z,7.40
2024-05-09T02:18:18.256Z,7.38
2024-05-09T02:21:26.714Z,6.63
2024-05-09T02:24:34.937Z,7.15
2024-05-09T02:27:43.069Z,8.52
2024-05-09T02:30:48.397Z,6.25
2024-05-09T02:33:53.956Z,6.93
2024-05-09T02:36:59.501Z,8.00
2024-05-09T02:40:03.281Z,6.25
2024-05-09T02:43:14.997Z,6.88
2024-05-09T02:46:23.337Z,8.23
2024-05-09T02:49:31.160Z,8.23
2024-05-09T02:52:36.567Z,9.38
2024-05-09T02:55:46.828Z,6.90
2024-05-09T02:58:52.313Z,7.40
2024-05-09T03:01:57.829Z,4.80
2024-05-09T03:05:03.611Z,4.65
2024-05-09T03:08:09.906Z,6.68
2024-05-09T03:11:21.414Z,5.72
2024-05-09T03:14:41.638Z,8.52
2024-05-09T03:17:46.311Z,7.50
2024-05-09T03:20:51.912Z,5.47
2024-05-09T03:23:57.264Z,5.95
2024-05-09T03:27:00.070Z,4.90
2024-05-09T03:30:10.016Z,4.38
2024-05-09T03:33:19.425Z,4.85
2024-05-09T03:36:46.828Z,6.30
2024-05-09T03:39:54.006Z,7.22
2024-05-09T03:42:59.542Z,4.18
2024-05-09T03:46:07.955Z,5.75
2024-05-09T03:52:24.246Z,3.50
2024-05-09T03:55:27.058Z,5.85
2024-05-09T03:58:33.138Z,5.28
2024-05-09T04:01:41.415Z,5.10
2024-05-09T04:04:45.224Z,5.13
2024-05-09T04:07:53.992Z,2.90
2024-05-09T04:10:56.993Z,5.65
2024-05-09T04:14:04.307Z,3.50
2024-05-09T04:17:12.867Z,4.73
2024-05-09T04:20:24.807Z,4.57
2024-05-09T04:23:39.559Z,4.43
2024-05-09T04:26:49.955Z,3.00
2024-05-09T04:29:52.771Z,5.75
2024-05-09T04:33:07.473Z,4.57
2024-05-09T04:36:14.587Z,6.45
2024-05-09T04:39:17.483Z,5.95
2024-05-09T04:42:23.958Z,6.80
2024-05-09T04:45:26.642Z,2.30
2024-05-09T04:48:35.281Z,3.53
2024-05-09T04:51:40.779Z,2.28
2024-05-09T04:54:44.350Z,3.00
2024-05-09T04:57:51.259Z,4.55
2024-05-09T05:01:16.216Z,2.90
2024-05-09T05:04:27.291Z,3.65
2024-05-09T05:07:33.020Z,3.33
2024-05-09T05:10:41.307Z,3.75
2024-05-09T05:13:44.249Z,9.35
2024-05-09T05:16:49.797Z,4.20
2024-05-09T05:19:56.934Z,3.78
2024-05-09T05:23:02.680Z,2.85
2024-05-09T05:26:12.075Z,3.33
2024-05-09T05:29:49.820Z,3.85
2024-05-09T05:32:53.034Z,2.42
2024-05-09T05:36:06.077Z,3.60
2024-05-09T05:39:11.799Z,3.15
2024-05-09T05:42:16.835Z,2.75
2024-05-09T05:45:22.313Z,2.97
2024-05-09T05:48:29.288Z,2.53
2024-05-09T05:51:40.449Z,4.20
2024-05-09T05:54:52.022Z,7.63
2024-05-09T05:57:54.889Z,1.85
2024-05-09T06:01:00.454Z,1.45
2024-05-09T06:04:04.044Z,4.32
2024-05-09T06:07:14.634Z,2.00
2024-05-09T06:10:25.119Z,4.43
2024-05-09T06:13:31.592Z,3.33
2024-05-09T06:16:36.997Z,2.25
2024-05-09T06:19:42.493Z,4.40
2024-05-09T06:22:48.380Z,2.22
2024-05-09T06:25:53.862Z,3.63
2024-05-09T06:28:56.604Z,2.97
2024-05-09T06:32:44.377Z,2.05
2024-05-09T06:35:50.044Z,4.15
2024-05-09T06:38:58.094Z,2.17
2024-05-09T06:42:00.888Z,2.00
2024-05-09T06:45:07.512Z,3.03
2024-05-09T06:48:13.251Z,2.45
2024-05-09T06:51:19.214Z,1.23
2024-05-09T06:54:25.598Z,2.28
2024-05-09T06:57:31.763Z,3.03
2024-05-09T07:00:41.647Z,1.75
2024-05-09T07:06:50.688Z,2.25
2024-05-09T07:09:59.934Z,3.35
2024-05-09T07:13:08.417Z,1.80
2024-05-09T07:19:25.863Z,2.17
2024-05-09T07:22:37.806Z,2.40
2024-05-09T07:25:49.557Z,1.67
2024-05-09T07:29:01.085Z,1.98
2024-05-09T07:32:10.136Z,2.85
2024-05-09T07:35:15.347Z,3.03
2024-05-09T07:38:22.131Z,1.80
2024-05-09T07:41:58.807Z,1.95
2024-05-09T07:45:21.332Z,1.77
2024-05-09T07:50:01.406Z,1.90
2024-05-09T07:53:21.888Z,2.08
2024-05-09T07:55:22.897Z,1.88
2024-05-09T07:58:29.106Z,1.75
2024-05-09T08:01:34.869Z,1.42
2024-05-09T08:04:38.253Z,1.95
2024-05-09T08:07:47.220Z,4.47
2024-05-09T08:10:50.428Z,8.45
2024-05-09T08:13:58.530Z,2.40
2024-05-09T08:17:03.579Z,2.75
2024-05-09T08:20:11.414Z,2.67
2024-05-09T08:23:18.208Z,3.28
2024-05-09T08:26:23.844Z,3.58
2024-05-09T08:29:29.301Z,8.45
2024-05-09T08:32:35.434Z,4.72
2024-05-09T08:35:41.412Z,4.10
2024-05-09T08:38:44.615Z,4.38
2024-05-09T08:41:54.472Z,4.28
2024-05-09T08:45:00.612Z,3.60
2024-05-09T08:48:08.041Z,1.90
2024-05-09T08:51:12.040Z,3.97
2024-05-09T08:54:25.397Z,11.48
2024-05-09T08:57:30.430Z,2.67
2024-05-09T09:00:40.097Z,3.40
2024-05-09T09:03:48.220Z,4.38
2024-05-09T09:06:59.213Z,2.20
2024-05-09T09:10:05.679Z,3.47
2024-05-09T09:13:17.406Z,5.53
2024-05-09T09:16:38.875Z,2.60
2024-05-09T09:19:42.604Z,3.67
2024-05-09T09:22:50.105Z,5.95
2024-05-09T09:26:01.918Z,6.63
2024-05-09T09:29:07.340Z,4.28
2024-05-09T09:32:19.835Z,3.97
2024-05-09T09:35:24.407Z,3.58
2024-05-09T09:38:33.718Z,3.15
2024-05-09T09:41:38.483Z,2.42
2024-05-09T09:44:58.176Z,5.45
2024-05-09T09:48:15.731Z,5.65
2024-05-09T09:51:23.337Z,3.60
2024-05-09T09:54:29.445Z,3.15
2024-05-09T09:57:37.568Z,3.60
2024-05-09T10:00:45.101Z,5.43
2024-05-09T10:04:08.460Z,4.82
2024-05-09T10:07:21.295Z,4.22
2024-05-09T10:13:44.986Z,4.57
2024-05-09T10:16:50.959Z,5.63
2024-05-09T10:20:14.917Z,3.08
2024-05-09T10:23:30.942Z,4.78
2024-05-09T10:26:35.327Z,3.92
2024-05-09T10:29:42.750Z,5.05
2024-05-09T10:32:47.219Z,3.23
2024-05-09T10:36:00.198Z,7.85
2024-05-09T10:39:09.172Z,2.90
2024-05-09T10:42:12.203Z,6.95
2024-05-09T10:45:23.214Z,3.50
2024-05-09T10:48:27.260Z,3.42
2024-05-09T10:51:35.579Z,4.53
2024-05-09T10:54:39.753Z,4.75
2024-05-09T10:57:45.386Z,5.78
2024-05-09T11:00:59.361Z,3.72
2024-05-09T11:04:06.590Z,4.45
2024-05-09T11:07:14.695Z,2.67
2024-05-09T11:10:27.800Z,2.67
2024-05-09T11:13:47.431Z,5.43
2024-05-09T11:17:12.872Z,4.72
2024-05-09T11:20:29.409Z,4.38
2024-05-09T11:23:38.632Z,6.40
2024-05-09T11:26:43.135Z,4.07
2024-05-09T11:29:49.626Z,6.30
2024-05-09T11:32:55.138Z,3.60
2024-05-09T11:36:02.681Z,3.08
2024-05-09T11:40:34.239Z,5.43
2024-05-09T11:44:15.690Z,6.22
2024-05-09T11:48:03.508Z,4.00
2024-05-09T11:54:43.354Z,5.72
2024-05-09T11:57:46.912Z,3.28
2024-05-09T12:00:53.388Z,5.22
2024-05-09T12:03:57.011Z,6.00
2024-05-09T12:07:03.515Z,4.18
2024-05-09T12:10:39.904Z,4.35
2024-05-09T12:13:46.992Z,6.35
2024-05-09T12:16:54.710Z,4.88
2024-05-09T12:19:57.451Z,5.45
2024-05-09T12:23:02.890Z,4.10
2024-05-09T12:26:10.159Z,5.88
2024-05-09T12:29:23.920Z,4.25
2024-05-09T12:32:29.782Z,5.30
2024-05-09T12:35:59.037Z,3.60
2024-05-09T12:39:26.253Z,3.65
2024-05-09T12:46:54.010Z,3.25
2024-05-09T12:51:00.927Z,4.40
2024-05-09T12:54:32.278Z,2.92
2024-05-09T12:57:40.213Z,4.88
2024-05-09T13:04:47.210Z,3.45
2024-05-09T13:10:59.708Z,6.93
2024-05-09T13:14:12.994Z,4.22
2024-05-09T13:17:18.595Z,2.85
2024-05-09T13:20:33.120Z,3.47
2024-05-09T13:23:42.480Z,3.65
2024-05-09T13:26:45.647Z,3.25
2024-05-09T13:29:53.632Z,4.22
2024-05-09T13:33:07.034Z,4.57
2024-05-09T13:36:17.228Z,3.60
2024-05-09T13:39:23.789Z,3.40
2024-05-09T13:42:34.211Z,3.85
2024-05-09T13:45:37.220Z,3.85
2024-05-09T13:48:44.164Z,3.92
2024-05-09T13:51:53.813Z,2.63
2024-05-09T13:54:59.732Z,3.60
2024-05-09T13:58:03.517Z,3.30
2024-05-09T14:01:12.133Z,6.50
2024-05-09T14:04:15.069Z,5.25
2024-05-09T14:07:23.788Z,3.97
2024-05-09T14:13:34.112Z,2.20
2024-05-09T14:16:42.220Z,2.95
2024-05-09T14:19:48.602Z,2.72
2024-05-09T14:22:56.177Z,7.53
2024-05-09T14:26:04.324Z,5.20
2024-05-09T14:29:09.552Z,3.78
2024-05-09T14:32:14.966Z,3.67
2024-05-09T14:35:25.711Z,4.30
2024-05-09T14:38:43.125Z,5.03
2024-05-09T14:41:48.473Z,4.37
2024-05-09T14:44:51.857Z,9.77
2024-05-09T14:47:57.485Z,4.20
2024-05-09T14:51:02.899Z,3.05
2024-05-09T14:54:08.340Z,5.40
2024-05-09T14:57:14.062Z,2.85
2024-05-09T15:00:26.298Z,5.22
2024-05-09T15:03:42.370Z,2.50
2024-05-09T15:06:48.748Z,7.00
2024-05-09T15:09:54.396Z,10.23
2024-05-09T15:12:59.927Z,5.80
2024-05-09T15:16:03.405Z,4.93
2024-05-09T15:19:08.945Z,5.03
2024-05-09T15:22:16.459Z,5.65
2024-05-09T15:25:24.806Z,6.03
2024-05-09T15:28:31.767Z,5.32
2024-05-09T15:31:46.098Z,3.65
2024-05-09T15:34:52.708Z,4.63
2024-05-09T15:37:55.902Z,5.18
2024-05-09T15:41:04.258Z,4.13
2024-05-09T15:47:12.490Z,6.47
2024-05-09T15:50:20.616Z,5.70
2024-05-09T15:53:34.002Z,3.35
2024-05-09T15:56:47.261Z,3.40
2024-05-09T15:59:50.080Z,3.75
2024-05-09T16:02:56.595Z,4.35
2024-05-09T16:06:02.434Z,4.13
2024-05-09T16:09:09.184Z,4.95
2024-05-09T16:12:17.309Z,3.33
2024-05-09T16:15:20.040Z,5.75
2024-05-09T16:18:35.057Z,5.25
2024-05-09T16:21:48.102Z,3.63
2024-05-09T16:25:12.962Z,4.10
2024-05-09T16:28:23.007Z,5.18
2024-05-09T16:31:27.489Z,4.03
2024-05-09T16:34:35.043Z,3.08
2024-05-09T16:37:38.761Z,2.75
2024-05-09T16:40:44.360Z,6.85
2024-05-09T16:43:54.907Z,4.43
2024-05-09T16:47:00.778Z,7.10
2024-05-09T16:50:10.796Z,5.57
2024-05-09T16:53:19.660Z,15.95
2024-05-09T16:56:27.710Z,6.25
2024-05-09T16:59:39.161Z,19.67
2024-05-09T17:02:50.629Z,10.07
2024-05-09T17:05:56.275Z,7.35
2024-05-09T17:09:08.095Z,10.43
2024-05-09T17:12:17.547Z,7.38
2024-05-09T17:15:34.284Z,7.43
2024-05-09T17:18:42.875Z,9.13
2024-05-09T17:21:51.129Z,9.93
2024-05-09T17:25:46.951Z,13.95
2024-05-09T17:33:07.472Z,8.80
2024-05-09T17:36:13.822Z,9.48
2024-05-09T17:39:19.805Z,8.73
2024-05-09T17:42:27.614Z,7.72
2024-05-09T17:45:32.098Z,8.15
2024-05-09T17:49:02.632Z,8.82
2024-05-09T17:52:18.303Z,10.40
2024-05-09T17:55:31.867Z,7.15
2024-05-09T17:58:42.161Z,7.35
2024-05-09T18:01:50.462Z,10.13
2024-05-09T18:06:12.222Z,11.05
2024-05-09T18:09:38.403Z,6.57
2024-05-09T18:12:49.184Z,10.93
2024-05-09T18:15:55.962Z,13.55
2024-05-09T18:19:03.148Z,14.38
2024-05-09T18:22:09.546Z,14.00
2024-05-09T18:25:15.294Z,17.30
2024-05-09T18:28:29.502Z,14.32
2024-05-09T18:31:33.249Z,21.83
2024-05-09T18:34:39.087Z,11.60
2024-05-09T18:37:59.087Z,12.10
2024-05-09T18:41:20.667Z,10.70
2024-05-09T18:44:27.553Z,11.32
2024-05-09T18:48:03.540Z,10.82
2024-05-09T18:51:20.417Z,14.50
2024-05-09T18:54:30.555Z,10.38
2024-05-09T18:57:36.673Z,14.95
2024-05-09T19:00:50.329Z,12.85
2024-05-09T19:04:02.365Z,14.30
2024-05-09T19:07:12.348Z,13.98
2024-05-09T19:10:22.583Z,15.50
2024-05-09T19:13:34.450Z,17.58
2024-05-09T19:16:40.628Z,12.07
2024-05-09T19:19:43.763Z,12.35
2024-05-09T19:22:49.430Z,12.15
2024-05-09T19:25:52.587Z,14.38
2024-05-09T19:29:00.823Z,12.18
2024-05-09T19:32:08.393Z,14.30
2024-05-09T19:35:27.343Z,12.73
2024-05-09T19:39:00.780Z,15.30
2024-05-09T19:42:19.932Z,13.80
2024-05-09T19:45:25.449Z,11.45
2024-05-09T19:55:28.783Z,11.15
2024-05-09T19:58:34.702Z,11.23
2024-05-09T20:01:45.313Z,12.10
2024-05-09T20:04:55.222Z,11.32
2024-05-09T20:07:59.006Z,9.30
2024-05-09T20:11:04.714Z,11.15
2024-05-09T20:14:10.726Z,11.57
2024-05-09T20:17:19.808Z,11.75
2024-05-09T20:20:48.404Z,12.73
2024-05-09T20:23:57.519Z,10.13
2024-05-09T20:27:12.005Z,9.32
2024-05-09T20:30:31.215Z,10.57
2024-05-09T20:37:10.521Z,11.65
2024-05-09T20:40:25.327Z,10.88
2024-05-09T20:43:39.654Z,14.27
2024-05-09T20:46:42.414Z,13.50
2024-05-09T20:49:51.263Z,13.18
2024-05-09T20:52:54.056Z,11.30
2024-05-09T20:55:59.632Z,10.98
2024-05-09T20:59:03.371Z,13.05
2024-05-09T21:02:24.916Z,12.50
2024-05-09T21:05:45.580Z,12.02
2024-05-09T21:08:51.391Z,11.82
2024-05-09T21:11:55.355Z,14.75
2024-05-09T21:15:01.031Z,13.25
2024-05-09T21:18:04.407Z,10.52
2024-05-09T21:21:12.933Z,12.25
2024-05-09T21:24:18.604Z,15.23
2024-05-09T21:27:21.403Z,12.20
2024-05-09T21:30:32.904Z,12.63
2024-05-09T21:33:43.582Z,17.48
2024-05-09T21:36:51.822Z,9.80
2024-05-09T21:39:54.964Z,12.15
2024-05-09T21:43:00.668Z,11.32
2024-05-09T21:46:03.887Z,14.90
2024-05-09T21:49:09.374Z,12.63
2024-05-09T21:52:14.984Z,10.10
2024-05-09T21:55:20.533Z,14.18
2024-05-09T21:58:23.871Z,10.20
2024-05-09T22:01:29.426Z,12.55
2024-05-09T22:04:32.430Z,9.60
2024-05-09T22:07:40.576Z,9.95
2024-05-09T22:10:43.624Z,12.10
2024-05-09T22:13:49.276Z,10.48
2024-05-09T22:16:52.184Z,9.27
2024-05-09T22:19:57.671Z,11.30
2024-05-09T22:23:03.468Z,9.05
2024-05-09T22:26:09.202Z,10.57
2024-05-09T22:29:12.520Z,13.57
2024-05-09T22:32:18.237Z,9.27
2024-05-09T22:35:21.368Z,9.23
2024-05-09T22:38:29.511Z,11.68
2024-05-09T22:41:34.945Z,9.00
2024-05-09T22:44:54.951Z,11.45
2024-05-09T22:48:04.920Z,7.72
2024-05-09T22:51:07.856Z,11.95
2024-05-09T22:54:21.757Z,12.73
2024-05-09T22:57:27.370Z,11.65
2024-05-09T23:00:32.350Z,9.70
2024-05-09T23:03:41.849Z,8.13
2024-05-09T23:06:44.739Z,11.13
2024-05-09T23:09:52.869Z,9.90
2024-05-09T23:12:55.745Z,9.98
2024-05-09T23:16:01.435Z,10.77
2024-05-09T23:19:07.082Z,8.55
2024-05-09T23:22:09.992Z,10.40
2024-05-09T23:25:18.496Z,8.60
2024-05-09T23:28:21.484Z,7.40
2024-05-09T23:31:27.171Z,8.73
2024-05-09T23:34:30.364Z,8.32
2024-05-09T23:37:35.944Z,10.57
2024-05-09T23:40:42.644Z,9.27
2024-05-09T23:43:48.836Z,10.75
2024-05-09T23:46:54.328Z,12.90
2024-05-09T23:49:57.085Z,16.05
2024-05-09T23:53:02.533Z,15.43
2024-05-09T23:56:08.599Z,21.45
2024-05-09T23:59:13.971Z,21.75
